Time;durP1;ratioP1;P1;durP2;ratioP2;P2;SDS_P1;SDS_P2;PMS_P1;PMS_P2;Temp;Humidity;BMP_temperature;BMP_pressure;BME280_temperature;BME280_humidity;BME280_pressure;Samples;Min_cycle;Max_cycle;Signal;HPM_P1;HPM_P2
2021/06/06 00:01:16;;;;;;;15.35;9.77;;;;;;;15.29;89.92;99455.31;5048124;28;20060;-81
2021/06/06 00:03:55;;;;;;;14.75;10.05;;;;;;;15.32;90.38;99459.53;5048460;28;20045;-81
2021/06/06 00:06:26;;;;;;;17.55;9.77;;;;;;;15.35;90.38;99481.03;5051020;28;20140;-81
2021/06/06 00:08:58;;;;;;;17.92;9.55;;;;;;;15.44;90.01;99468.81;5045419;28;20485;-81
2021/06/06 00:11:34;;;;;;;17.33;9.77;;;;;;;15.23;90.36;99450.69;5045704;28;20041;-81
2021/06/06 00:14:17;;;;;;;15.75;9.30;;;;;;;15.21;90.74;99461.84;5049456;28;20048;-81
2021/06/06 00:16:52;;;;;;;16.40;9.52;;;;;;;15.24;90.63;99451.53;5046660;28;20485;-81
2021/06/06 00:19:24;;;;;;;12.70;9.00;;;;;;;15.29;90.47;99449.84;5051934;28;20053;-81
2021/06/06 00:21:51;;;;;;;19.13;10.75;;;;;;;15.31;90.46;99455.97;5046693;28;20037;-81
2021/06/06 00:24:24;;;;;;;15.52;9.52;;;;;;;15.31;90.33;99445.03;5047989;28;20049;-81
2021/06/06 00:26:52;;;;;;;15.10;10.10;;;;;;;15.32;90.19;99454.06;5053421;28;20045;-81
2021/06/06 00:29:19;;;;;;;15.05;9.85;;;;;;;15.34;90.09;99455.56;5050800;28;20059;-81
2021/06/06 00:31:45;;;;;;;17.10;9.77;;;;;;;15.38;90.20;99466.94;5050911;28;20436;-81
2021/06/06 00:34:12;;;;;;;14.15;9.80;;;;;;;15.30;91.02;99462.50;5049642;28;20049;-81
2021/06/06 00:36:39;;;;;;;12.88;9.50;;;;;;;15.34;90.68;99462.91;5051871;28;20048;-81
2021/06/06 00:39:08;;;;;;;13.32;8.77;;;;;;;15.26;90.39;99454.91;5050967;28;20056;-81
2021/06/06 00:41:38;;;;;;;15.82;10.02;;;;;;;15.24;90.26;99455.13;5050813;28;20045;-81
2021/06/06 00:44:05;;;;;;;16.00;9.82;;;;;;;15.20;90.50;99465.66;5045198;28;20053;-81
2021/06/06 00:46:37;;;;;;;15.18;10.07;;;;;;;15.29;90.15;99466.28;5048924;28;20127;-81
2021/06/06 00:49:05;;;;;;;15.38;10.10;;;;;;;15.32;90.41;99470.50;5051595;28;21056;-81
2021/06/06 00:51:39;;;;;;;17.63;9.93;;;;;;;15.21;90.11;99455.53;5050031;28;20393;-81
2021/06/06 00:54:15;;;;;;;16.63;10.20;;;;;;;15.31;90.49;99468.81;5050078;28;20071;-82
2021/06/06 00:56:49;;;;;;;15.57;10.00;;;;;;;15.29;90.01;99462.72;5044706;28;20041;-81
2021/06/06 00:59:23;;;;;;;14.43;10.13;;;;;;;15.37;89.81;99459.75;5046146;28;20053;-81
2021/06/06 01:01:50;;;;;;;18.17;9.77;;;;;;;15.24;89.98;99444.16;5050855;28;20485;-81
2021/06/06 01:04:24;;;;;;;19.75;10.20;;;;;;;15.18;90.10;99470.47;5054257;28;20574;-81
2021/06/06 01:07:05;;;;;;;14.82;10.45;;;;;;;15.20;90.77;99467.53;5049607;28;20045;-81
2021/06/06 01:09:33;;;;;;;13.02;9.13;;;;;;;15.08;90.90;99452.75;5050446;28;20059;-81
2021/06/06 01:12:15;;;;;;;15.38;9.93;;;;;;;15.19;90.79;99447.53;5045437;28;20045;-82
2021/06/06 01:14:49;;;;;;;13.57;10.35;;;;;;;15.37;90.01;99473.44;5048399;28;20060;-81
2021/06/06 01:17:21;;;;;;;15.50;9.10;;;;;;;15.34;89.90;99471.13;5049642;28;20064;-80
2021/06/06 01:19:56;;;;;;;16.95;9.80;;;;;;;15.19;89.94;99439.31;5050836;28;20059;-81
2021/06/06 01:22:52;;;;;;;18.73;9.82;;;;;;;15.28;89.39;99470.09;5049416;28;20051;-82
2021/06/06 01:25:44;;;;;;;13.60;9.57;;;;;;;15.29;90.03;99468.19;5035140;28;20098;-81
2021/06/06 01:28:34;;;;;;;14.35;8.88;;;;;;;15.40;89.83;99473.03;5049235;28;20410;-80
2021/06/06 01:31:12;;;;;;;21.02;9.27;;;;;;;15.15;89.89;99459.09;5049921;28;20393;-80
2021/06/06 01:36:48;;;;;;;14.50;9.55;;;;;;;15.18;89.51;99448.56;5040378;28;20055;-81
2021/06/06 01:43:00;;;;;;;15.80;9.45;;;;;;;15.23;89.75;99445.19;5034690;28;20057;-80
2021/06/06 01:45:32;;;;;;;18.67;10.10;;;;;;;15.27;89.90;99451.97;5041930;28;20053;-81
2021/06/06 01:48:01;;;;;;;14.18;9.80;;;;;;;15.27;89.60;99448.38;5047670;28;20061;-81
2021/06/06 01:50:58;;;;;;;15.18;9.70;;;;;;;15.31;89.78;99455.13;5048985;28;20319;-81
2021/06/06 01:53:27;;;;;;;15.48;9.68;;;;;;;15.29;89.49;99457.22;5043551;28;20049;-82
2021/06/06 01:56:07;;;;;;;14.85;8.93;;;;;;;15.16;89.73;99430.66;5044209;28;20043;-82
2021/06/06 01:58:48;;;;;;;;;;;;;;;15.29;89.69;99462.72;5049972;28;20076;-82
2021/06/06 02:01:34;;;;;;;15.05;10.15;;;;;;;15.24;89.86;99438.69;5047055;28;20262;-82
2021/06/06 02:04:02;;;;;;;14.07;9.77;;;;;;;15.21;89.16;99439.09;5047211;28;20045;-81
2021/06/06 02:06:52;;;;;;;18.95;10.85;;;;;;;15.23;89.04;99437.00;5043359;28;20139;-81
2021/06/06 02:09:25;;;;;;;17.98;10.68;;;;;;;15.24;89.39;99437.84;5035103;28;20055;-81
2021/06/06 02:12:01;;;;;;;18.42;11.10;;;;;;;15.29;89.73;99436.16;5049564;28;20378;-81
2021/06/06 02:14:53;;;;;;;17.92;11.23;;;;;;;15.26;89.06;99452.16;5056100;28;20085;-82
2021/06/06 02:17:29;;;;;;;18.55;10.52;;;;;;;15.19;89.53;99435.72;5047337;28;20459;-83
2021/06/06 02:19:56;;;;;;;18.80;11.15;;;;;;;15.37;89.73;99449.66;5049745;28;20260;-81
2021/06/06 02:22:28;;;;;;;16.60;10.60;;;;;;;15.24;89.38;99433.22;5047065;28;20080;-82
2021/06/06 02:24:54;;;;;;;15.95;10.30;;;;;;;15.32;89.36;99452.16;5044058;28;20049;-82
2021/06/06 02:27:26;;;;;;;17.20;11.02;;;;;;;15.19;89.36;99444.78;5051719;28;20131;-82
2021/06/06 02:29:59;;;;;;;18.67;10.77;;;;;;;15.11;89.42;99455.91;5051354;28;20037;-82
2021/06/06 02:32:33;;;;;;;22.13;11.80;;;;;;;15.08;89.95;99441.81;5050157;28;20095;-81
2021/06/06 02:35:09;;;;;;;18.02;11.18;;;;;;;15.19;90.12;99453.00;5053889;28;20048;-81
2021/06/06 02:37:43;;;;;;;18.83;11.05;;;;;;;15.13;90.42;99461.19;5052527;28;20049;-81
2021/06/06 02:40:16;;;;;;;19.88;12.10;;;;;;;15.14;90.38;99435.50;5054151;28;20143;-81
2021/06/06 02:42:45;;;;;;;22.55;11.45;;;;;;;15.24;90.25;99452.38;5052393;28;20052;-81
2021/06/06 02:45:14;;;;;;;18.15;11.20;;;;;;;15.15;91.19;99445.41;5052740;28;20052;-81
2021/06/06 02:47:44;;;;;;;18.85;12.38;;;;;;;15.15;90.46;99439.94;5049076;28;20080;-82
2021/06/06 02:50:15;;;;;;;22.65;11.32;;;;;;;15.16;90.64;99441.59;5053322;28;20052;-81
2021/06/06 02:52:45;;;;;;;21.15;11.00;;;;;;;14.95;90.67;99423.44;5053928;28;20044;-82
2021/06/06 02:55:15;;;;;;;22.50;11.93;;;;;;;14.96;90.56;99425.97;5047717;28;20063;-81
2021/06/06 02:57:47;;;;;;;21.35;11.73;;;;;;;15.13;90.58;99442.88;5053703;28;20041;-81
2021/06/06 03:00:18;;;;;;;17.48;11.27;;;;;;;15.11;90.28;99423.06;5046348;28;20049;-81
2021/06/06 03:02:50;;;;;;;20.55;11.65;;;;;;;15.14;90.25;99424.56;5053765;28;20052;-81
2021/06/06 03:05:20;;;;;;;23.10;12.68;;;;;;;15.24;90.49;99446.06;5052798;28;20057;-82
2021/06/06 03:07:51;;;;;;;27.05;13.45;;;;;;;15.14;89.46;99427.28;5053268;28;20068;-82
2021/06/06 03:10:21;;;;;;;24.75;14.10;;;;;;;15.09;90.86;99435.28;5047914;28;20053;-82
2021/06/06 03:12:49;;;;;;;26.10;14.15;;;;;;;15.12;90.27;99426.66;5044046;28;20044;-81
2021/06/06 03:15:18;;;;;;;25.00;13.63;;;;;;;15.06;91.11;99422.03;5053208;28;20053;-82
2021/06/06 03:17:50;;;;;;;23.17;13.20;;;;;;;15.09;90.77;99438.03;5042911;28;20045;-81
2021/06/06 03:20:21;;;;;;;24.42;13.55;;;;;;;15.14;90.79;99435.50;5053618;28;20048;-82
2021/06/06 03:22:50;;;;;;;23.70;12.48;;;;;;;15.18;90.31;99445.00;5051232;28;20652;-81
2021/06/06 03:25:21;;;;;;;27.27;13.80;;;;;;;15.10;90.10;99428.75;5047763;28;20045;-82
2021/06/06 03:27:48;;;;;;;19.63;13.13;;;;;;;14.96;90.52;99430.63;5051669;28;20477;-81
2021/06/06 03:30:27;;;;;;;21.90;12.95;;;;;;;14.87;91.10;99435.44;5051410;28;20083;-82
2021/06/06 03:32:58;;;;;;;22.73;13.00;;;;;;;14.95;90.76;99450.81;5051723;28;20095;-81
2021/06/06 03:35:24;;;;;;;22.80;12.90;;;;;;;14.91;91.45;99455.88;5053099;28;20378;-81
2021/06/06 03:37:51;;;;;;;24.90;13.10;;;;;;;14.81;91.34;99430.78;5051586;28;20045;-81
2021/06/06 03:40:19;;;;;;;21.38;11.30;;;;;;;14.79;90.84;99436.47;5046623;28;20056;-81
2021/06/06 03:42:45;;;;;;;17.23;11.48;;;;;;;14.90;90.98;99432.28;5045893;28;20477;-81
2021/06/06 03:45:13;;;;;;;21.17;11.30;;;;;;;14.77;90.74;99427.63;5052531;28;20120;-80
2021/06/06 03:47:40;;;;;;;21.27;11.48;;;;;;;14.80;91.59;99426.38;5047336;28;20409;-79
2021/06/06 03:50:11;;;;;;;15.77;10.10;;;;;;;14.89;90.29;99427.03;5049831;28;20052;-79
2021/06/06 03:52:39;;;;;;;19.75;11.55;;;;;;;15.02;90.62;99444.34;5052939;28;20056;-78
2021/06/06 03:55:07;;;;;;;19.33;11.27;;;;;;;14.83;91.28;99420.50;5052033;28;20096;-78
2021/06/06 03:57:34;;;;;;;17.33;10.43;;;;;;;14.93;91.31;99439.25;5052774;28;20048;-78
2021/06/06 04:00:01;;;;;;;21.25;10.60;;;;;;;14.96;91.17;99444.31;5050895;28;20152;-79
2021/06/06 04:02:27;;;;;;;18.40;10.93;;;;;;;14.96;90.74;99444.31;5050453;28;20045;-80
2021/06/06 04:04:53;;;;;;;23.02;10.55;;;;;;;14.78;90.79;99410.16;5048738;28;20044;-79
2021/06/06 04:07:21;;;;;;;16.35;10.13;;;;;;;14.93;91.43;99433.78;5048018;28;20041;-79
2021/06/06 04:09:48;;;;;;;18.15;9.90;;;;;;;14.88;91.42;99439.88;5048902;28;20045;-79
2021/06/06 04:12:15;;;;;;;16.80;9.45;;;;;;;15.03;91.11;99432.31;5050820;28;20041;-79
2021/06/06 04:14:41;;;;;;;16.58;10.18;;;;;;;15.00;90.81;99420.94;5051371;28;20048;-79
2021/06/06 04:17:07;;;;;;;17.88;10.20;;;;;;;15.17;90.03;99435.09;5046614;28;20052;-79
2021/06/06 04:19:34;;;;;;;16.80;10.27;;;;;;;15.04;90.47;99428.53;5052138;28;20051;-79
2021/06/06 04:22:00;;;;;;;17.27;9.68;;;;;;;14.86;90.56;99418.19;5047613;28;20045;-79
2021/06/06 04:24:28;;;;;;;18.77;10.85;;;;;;;14.90;91.67;99424.06;5051784;28;20053;-80
2021/06/06 04:26:54;;;;;;;13.45;9.43;;;;;;;14.99;91.35;99428.31;5050549;28;20049;-79
2021/06/06 04:29:21;;;;;;;15.35;10.20;;;;;;;14.90;90.79;99429.56;5045958;28;20044;-80
2021/06/06 04:31:47;;;;;;;16.40;9.30;;;;;;;14.77;91.31;99410.34;5047599;28;20444;-79
2021/06/06 04:34:13;;;;;;;16.45;9.90;;;;;;;14.85;90.88;99438.38;5050343;28;20485;-80
2021/06/06 04:36:39;;;;;;;14.93;9.52;;;;;;;14.97;90.94;99426.84;5043644;28;20107;-79
2021/06/06 04:39:06;;;;;;;15.50;8.77;;;;;;;14.84;nan;99403.00;5050873;28;20057;-79
2021/06/06 04:41:34;;;;;;;12.63;8.60;;;;;;;14.89;91.34;99416.06;5051038;28;20103;-80
2021/06/06 04:44:00;;;;;;;13.38;8.63;;;;;;;14.90;91.67;99424.06;5050213;28;20048;-79
2021/06/06 04:46:27;;;;;;;11.45;7.72;;;;;;;14.79;91.29;99411.84;5050989;28;20052;-79
2021/06/06 04:48:53;;;;;;;10.32;7.25;;;;;;;14.81;91.33;99428.91;5044683;28;20060;-81
2021/06/06 04:51:22;;;;;;;10.70;7.30;;;;;;;14.71;92.03;99405.72;5048892;28;20045;-80
2021/06/06 04:53:50;;;;;;;11.60;7.40;;;;;;;14.81;91.35;99420.72;5046028;28;20409;-80
2021/06/06 04:56:18;;;;;;;14.93;8.02;;;;;;;14.81;91.36;99408.91;5047371;28;20049;-80
2021/06/06 04:58:46;;;;;;;13.20;7.90;;;;;;;14.83;91.79;99412.28;5050517;28;20045;-80
2021/06/06 05:01:13;;;;;;;10.35;7.38;;;;;;;14.73;91.50;99407.19;5050199;28;20056;-80
2021/06/06 05:03:40;;;;;;;13.63;8.63;;;;;;;14.79;91.90;99413.75;5050339;28;20220;-80
2021/06/06 05:06:06;;;;;;;11.93;7.55;;;;;;;14.94;91.97;99433.56;5048672;28;20106;-80
2021/06/06 05:08:32;;;;;;;9.18;7.00;;;;;;;14.80;91.05;99412.72;5049609;28;20060;-80
2021/06/06 05:10:59;;;;;;;11.02;6.97;;;;;;;14.87;91.79;99421.75;5048084;28;20053;-80
2021/06/06 05:13:26;;;;;;;10.77;7.25;;;;;;;14.95;91.55;99431.66;5047287;28;20508;-80
2021/06/06 05:15:55;;;;;;;10.27;6.30;;;;;;;14.93;91.26;99431.88;5050800;28;20135;-80
2021/06/06 05:18:22;;;;;;;10.63;6.80;;;;;;;14.82;92.19;99427.84;5043992;28;20473;-79
2021/06/06 05:20:51;;;;;;;8.73;6.47;;;;;;;14.88;91.90;99431.66;5050716;28;20127;-80
2021/06/06 05:23:19;;;;;;;9.27;6.53;;;;;;;14.86;91.33;99431.03;5050680;28;20072;-80
2021/06/06 05:25:45;;;;;;;7.97;6.20;;;;;;;14.76;92.55;99414.16;5050454;28;20092;-80
2021/06/06 05:28:16;;;;;;;15.43;8.05;;;;;;;14.80;91.73;99429.13;5049096;28;20531;-80
2021/06/06 05:30:43;;;;;;;8.40;6.30;;;;;;;14.72;91.93;99419.19;5050811;28;20060;-80
2021/06/06 05:33:12;;;;;;;9.75;6.47;;;;;;;14.87;91.58;99427.22;5045583;28;20068;-80
2021/06/06 05:35:39;;;;;;;9.77;6.55;;;;;;;14.84;92.33;99431.25;5049609;28;20072;-80
2021/06/06 05:38:09;;;;;;;12.73;6.70;;;;;;;14.86;92.52;99442.81;5043094;28;20049;-80
2021/06/06 05:40:37;;;;;;;10.43;6.75;;;;;;;14.78;92.68;99437.50;5046826;28;20516;-80
2021/06/06 05:43:05;;;;;;;8.60;6.00;;;;;;;14.65;93.04;99423.81;5056598;28;20409;-80
2021/06/06 05:45:32;;;;;;;7.53;5.22;;;;;;;14.71;92.52;99431.19;5049494;28;20041;-80
2021/06/06 05:47:59;;;;;;;11.27;6.57;;;;;;;14.81;91.97;99425.31;5050678;28;20505;-80
2021/06/06 05:50:30;;;;;;;9.55;6.15;;;;;;;14.78;92.03;99431.22;5046596;28;20045;-80
2021/06/06 05:52:56;;;;;;;7.95;5.57;;;;;;;14.67;92.24;99440.84;5043161;28;20072;-80
2021/06/06 05:55:23;;;;;;;9.65;5.75;;;;;;;14.69;92.25;99422.31;5047651;28;20433;-80
2021/06/06 05:57:50;;;;;;;7.88;5.50;;;;;;;14.80;92.20;99434.59;5049591;28;20056;-80
2021/06/06 06:00:22;;;;;;;14.35;6.45;;;;;;;14.79;92.78;99444.69;5048605;28;20076;-80
2021/06/06 06:02:48;;;;;;;9.38;5.93;;;;;;;14.63;92.51;99431.38;5051987;28;20049;-80
2021/06/06 06:05:15;;;;;;;13.57;6.35;;;;;;;14.66;92.73;99425.47;5052043;28;20049;-80
2021/06/06 06:07:43;;;;;;;12.55;7.63;;;;;;;14.75;93.04;99440.66;5048372;28;20268;-79
2021/06/06 06:10:11;;;;;;;25.13;11.63;;;;;;;14.70;92.82;99432.25;5054429;28;20107;-79
2021/06/06 06:12:38;;;;;;;22.35;11.95;;;;;;;14.74;92.82;99440.88;5052723;28;20057;-80
2021/06/06 06:15:05;;;;;;;28.98;13.95;;;;;;;14.82;92.64;99436.06;5050835;28;20057;-79
2021/06/06 06:17:32;;;;;;;29.77;13.93;;;;;;;14.89;92.54;99435.22;5050495;28;20064;-79
2021/06/06 06:19:58;;;;;;;23.92;14.10;;;;;;;14.95;92.56;99443.47;5051170;28;20049;-79
2021/06/06 06:22:24;;;;;;;27.75;14.20;;;;;;;14.84;91.78;99430.38;5054122;28;20052;-79
2021/06/06 06:24:52;;;;;;;27.33;12.85;;;;;;;14.63;92.50;99432.22;5053645;28;20055;-79
2021/06/06 06:27:19;;;;;;;23.67;13.07;;;;;;;14.62;93.39;99429.69;5053149;28;20076;-78
2021/06/06 06:29:47;;;;;;;22.75;13.20;;;;;;;14.85;92.61;99448.50;5051234;28;20059;-78
2021/06/06 06:32:14;;;;;;;24.48;13.07;;;;;;;14.80;92.60;99442.81;5047159;28;20172;-78
2021/06/06 06:34:40;;;;;;;24.02;13.30;;;;;;;14.94;93.00;99451.91;5053718;28;20075;-78
2021/06/06 06:37:07;;;;;;;23.42;12.48;;;;;;;14.86;92.73;99434.59;5053298;28;20049;-78
2021/06/06 06:39:33;;;;;;;21.10;12.48;;;;;;;14.84;92.75;99436.72;5053630;28;20405;-79
2021/06/06 06:42:01;;;;;;;20.40;12.48;;;;;;;14.85;92.32;99430.16;5047531;28;20045;-78
2021/06/06 06:44:27;;;;;;;22.38;12.50;;;;;;;14.95;92.02;99442.63;5050019;28;20038;-78
2021/06/06 06:46:54;;;;;;;21.63;11.60;;;;;;;15.02;92.21;99451.69;5051477;28;20045;-78
2021/06/06 06:49:20;;;;;;;24.02;11.98;;;;;;;14.89;92.71;99448.91;5060899;28;20056;-78
2021/06/06 06:51:46;;;;;;;24.27;11.65;;;;;;;14.86;92.65;99448.28;5053411;28;20048;-78
2021/06/06 06:54:12;;;;;;;20.40;11.20;;;;;;;14.97;92.14;99443.28;5046303;28;20064;-78
2021/06/06 06:56:39;;;;;;;18.60;11.23;;;;;;;15.00;92.02;99457.38;5052178;28;20123;-78
2021/06/06 06:59:06;;;;;;;14.52;9.77;;;;;;;14.91;92.37;99466.00;5050552;28;20053;-78
2021/06/06 07:01:33;;;;;;;18.42;9.82;;;;;;;14.75;92.86;99440.66;5052706;28;20045;-78
2021/06/06 07:03:59;;;;;;;19.90;10.20;;;;;;;14.77;93.25;99449.53;5052677;28;20053;-78
2021/06/06 07:06:25;;;;;;;19.05;10.55;;;;;;;14.84;93.22;99450.41;5052997;28;20049;-78
2021/06/06 07:08:52;;;;;;;22.85;9.70;;;;;;;14.90;92.67;99445.97;5052143;28;20049;-78
2021/06/06 07:11:21;;;;;;;19.05;10.43;;;;;;;14.95;92.59;99445.34;5052478;28;20071;-79
2021/06/06 07:13:48;;;;;;;20.67;10.95;;;;;;;15.00;92.65;99448.34;5046279;28;20045;-78
2021/06/06 07:16:18;;;;;;;20.60;10.68;;;;;;;14.98;91.83;99443.06;5051142;28;20136;-78
2021/06/06 07:18:45;;;;;;;23.05;10.85;;;;;;;14.94;92.61;99446.41;5051501;28;20095;-78
2021/06/06 07:21:14;;;;;;;22.85;10.45;;;;;;;15.11;93.00;99474.25;5050512;28;20106;-78
2021/06/06 07:23:42;;;;;;;20.90;11.25;;;;;;;15.09;92.45;99462.69;5052927;28;20510;-78
2021/06/06 07:26:12;;;;;;;24.95;11.52;;;;;;;15.01;92.38;99450.84;5051814;28;20076;-78
2021/06/06 07:28:38;;;;;;;25.50;12.13;;;;;;;14.87;93.03;99460.06;5052732;28;20513;-78
2021/06/06 07:31:06;;;;;;;21.77;11.93;;;;;;;15.10;93.22;99472.56;5049382;28;20069;-78
2021/06/06 07:33:36;;;;;;;21.85;11.48;;;;;;;15.03;92.51;99448.75;5052358;28;20144;-79
2021/06/06 07:36:05;;;;;;;23.15;12.65;;;;;;;15.04;93.10;99471.50;5049626;28;20049;-78
2021/06/06 07:38:31;;;;;;;26.88;13.98;;;;;;;14.84;93.51;99455.88;5051662;28;20451;-79
2021/06/06 07:40:59;;;;;;;21.33;11.65;;;;;;;15.05;93.25;99462.22;5049845;28;20045;-78
2021/06/06 07:43:26;;;;;;;25.95;12.95;;;;;;;15.04;93.25;99455.09;5048838;28;20045;-79
2021/06/06 07:45:53;;;;;;;30.70;15.23;;;;;;;15.02;93.51;99451.69;5046122;28;20041;-78
2021/06/06 07:48:20;;;;;;;34.70;15.60;;;;;;;15.10;93.02;99461.59;5048010;28;20678;-77
2021/06/06 07:50:50;;;;;;;34.35;15.80;;;;;;;14.97;93.64;99462.44;5044598;28;20428;-77
2021/06/06 07:53:18;;;;;;;40.45;16.38;;;;;;;15.13;93.92;99469.41;5044990;28;20463;-80
2021/06/06 07:55:45;;;;;;;36.05;15.98;;;;;;;15.05;94.04;99459.50;5044415;28;20140;-79
2021/06/06 07:58:12;;;;;;;43.20;18.02;;;;;;;15.12;93.89;99463.09;5040186;28;20052;-78
2021/06/06 08:00:42;;;;;;;38.50;17.70;;;;;;;15.05;93.92;99448.53;5048977;28;20060;-78
2021/06/06 08:03:08;;;;;;;38.85;18.38;;;;;;;15.12;93.67;99451.31;5031227;28;20045;-78
2021/06/06 08:05:37;;;;;;;44.45;20.15;;;;;;;15.25;93.19;99447.72;5050965;28;20386;-78
2021/06/06 08:08:06;;;;;;;45.13;20.42;;;;;;;15.14;93.99;99457.41;5049848;28;20098;-78
2021/06/06 08:10:35;;;;;;;41.45;19.88;;;;;;;15.15;93.84;99438.03;5049962;28;20440;-79
2021/06/06 08:13:02;;;;;;;55.88;24.17;;;;;;;15.20;93.86;99451.09;5051005;28;20415;-79
2021/06/06 08:15:28;;;;;;;53.38;23.40;;;;;;;15.20;94.02;99465.66;5047352;28;20497;-79
2021/06/06 08:17:55;;;;;;;48.53;22.73;;;;;;;15.21;93.95;99456.38;5041665;28;20128;-79
2021/06/06 08:20:25;;;;;;;46.35;23.02;;;;;;;15.18;94.08;99469.66;5047942;28;20076;-80
2021/06/06 08:22:52;;;;;;;53.13;25.35;;;;;;;15.13;94.44;99436.53;5043195;28;20167;-79
2021/06/06 08:25:21;;;;;;;55.00;24.55;;;;;;;15.37;94.04;99468.84;5043585;28;20481;-79
2021/06/06 08:27:49;;;;;;;55.38;25.85;;;;;;;15.41;93.14;99458.28;5051056;28;20052;-80
2021/06/06 08:30:20;;;;;;;58.15;26.67;;;;;;;15.44;93.67;99468.00;5050856;28;20555;-80
2021/06/06 08:32:49;;;;;;;55.13;26.40;;;;;;;15.42;93.62;99453.69;5042142;28;20041;-79
2021/06/06 08:35:17;;;;;;;57.88;27.73;;;;;;;15.45;92.87;99450.50;5053358;28;20076;-78
2021/06/06 08:37:43;;;;;;;60.53;27.95;;;;;;;15.39;93.02;99443.97;5035635;28;20045;-78
2021/06/06 08:40:12;;;;;;;57.60;27.38;;;;;;;15.45;93.25;99453.25;5046620;28;20045;-79
2021/06/06 08:42:45;;;;;;;57.30;27.13;;;;;;;15.49;93.38;99451.75;5051880;28;20091;-78
2021/06/06 08:45:21;;;;;;;58.97;28.13;;;;;;;15.54;92.36;99441.03;5053002;28;20083;-79
2021/06/06 08:47:49;;;;;;;59.95;28.88;;;;;;;15.66;92.52;99460.44;5043818;28;20042;-79
2021/06/06 08:50:20;;;;;;;59.83;29.17;;;;;;;15.62;92.73;99450.94;5045395;28;20541;-79
2021/06/06 08:52:54;;;;;;;74.13;32.25;;;;;;;15.56;92.67;99444.38;5043133;28;20037;-80
2021/06/06 08:55:41;;;;;;;74.53;33.78;;;;;;;15.68;92.88;99459.13;5049686;28;20048;-79
2021/06/06 08:58:24;;;;;;;74.25;32.70;;;;;;;15.58;92.90;99448.63;5035276;28;20057;-79
2021/06/06 09:00:59;;;;;;;77.68;36.35;;;;;;;15.75;92.78;99459.16;5041094;28;20048;-79
2021/06/06 09:03:28;;;;;;;79.13;36.45;;;;;;;15.62;92.37;99445.44;5040931;28;20077;-80
2021/06/06 09:06:16;;;;;;;89.43;37.80;;;;;;;15.74;92.52;99468.41;5033447;28;20065;-80
2021/06/06 09:08:42;;;;;;;84.68;39.78;;;;;;;15.76;92.49;99452.59;5047190;28;20135;-80
2021/06/06 09:11:13;;;;;;;80.90;37.70;;;;;;;15.71;91.99;99461.47;5051825;28;20060;-79
2021/06/06 09:13:41;;;;;;;78.40;39.03;;;;;;;15.68;92.56;99444.59;5051436;28;20041;-79
2021/06/06 09:16:16;;;;;;;88.30;37.97;;;;;;;15.65;92.75;99440.38;5048749;28;20052;-79
2021/06/06 09:18:47;;;;;;;80.82;38.78;;;;;;;15.90;92.22;99465.28;5051088;28;20045;-79
2021/06/06 09:21:18;;;;;;;75.65;36.40;;;;;;;15.66;92.15;99446.72;5042561;28;20171;-79
2021/06/06 09:23:47;;;;;;;72.97;36.50;;;;;;;15.58;92.27;99443.13;5048647;28;20041;-79
2021/06/06 09:26:24;;;;;;;74.82;37.50;;;;;;;15.63;92.13;99458.94;5041150;28;20050;-79
2021/06/06 09:29:10;;;;;;;67.28;34.10;;;;;;;15.61;91.97;99472.03;5046607;28;20663;-80
2021/06/06 09:31:38;;;;;;;70.15;34.53;;;;;;;15.51;92.76;99464.19;5042863;28;20086;-79
2021/06/06 09:34:08;;;;;;;73.40;33.08;;;;;;;15.40;92.69;99456.59;5050537;28;20048;-79
2021/06/06 09:36:38;;;;;;;63.13;32.92;;;;;;;15.46;91.89;99449.44;5045128;28;20049;-79
2021/06/06 09:39:17;;;;;;;66.55;32.97;;;;;;;15.41;92.47;99463.78;5046557;28;20053;-79
2021/06/06 09:41:46;;;;;;;71.43;36.05;;;;;;;15.51;92.74;99474.34;5038414;28;20049;-80
2021/06/06 09:44:24;;;;;;;69.93;32.72;;;;;;;15.48;93.02;99469.28;5047533;28;20576;-79
2021/06/06 09:46:53;;;;;;;67.18;32.63;;;;;;;15.44;92.78;99452.38;5043845;28;20044;-81
2021/06/06 09:49:28;;;;;;;63.17;32.88;;;;;;;15.57;92.42;99454.31;5045096;28;20053;-81
2021/06/06 09:51:57;;;;;;;66.43;32.95;;;;;;;15.58;92.53;99462.31;5050912;28;20056;-81
2021/06/06 09:54:31;;;;;;;73.05;34.92;;;;;;;15.73;92.97;99474.94;5041549;28;20049;-81
2021/06/06 09:57:00;;;;;;;66.13;34.53;;;;;;;15.69;92.68;99458.09;5051177;28;20115;-82
2021/06/06 09:59:31;;;;;;;66.97;35.17;;;;;;;15.78;92.61;99458.75;5045677;28;20053;-81
2021/06/06 10:02:03;;;;;;;63.10;33.50;;;;;;;15.78;92.60;99472.47;5051244;28;20107;-80
2021/06/06 10:04:32;;;;;;;64.72;34.00;;;;;;;15.82;92.49;99478.34;5035727;28;20111;-81
2021/06/06 10:07:12;;;;;;;67.20;33.42;;;;;;;15.82;92.52;99467.41;5043761;28;20099;-81
2021/06/06 10:09:41;;;;;;;63.72;33.13;;;;;;;15.88;91.56;99455.56;5040942;28;20127;-81
2021/06/06 10:12:12;;;;;;;71.05;35.20;;;;;;;16.12;92.37;99481.50;5049408;28;20080;-81
2021/06/06 10:14:44;;;;;;;65.40;32.53;;;;;;;16.15;91.62;99467.34;5041980;28;20045;-81
2021/06/06 10:17:16;;;;;;;67.05;34.60;;;;;;;16.21;91.23;99468.41;5047135;28;20060;-81
2021/06/06 10:19:52;;;;;;;65.75;33.17;;;;;;;16.13;91.25;99469.47;5047853;28;20386;-81
2021/06/06 10:22:22;;;;;;;67.30;33.95;;;;;;;16.32;90.04;99466.88;5051528;28;20053;-81
2021/06/06 10:24:57;;;;;;;66.90;34.88;;;;;;;16.36;90.13;99458.00;5048995;28;20096;-81
2021/06/06 10:27:28;;;;;;;65.40;33.67;;;;;;;16.36;90.42;99465.41;5051202;28;20131;-81
2021/06/06 10:30:01;;;;;;;66.35;33.17;;;;;;;16.41;90.27;99485.66;5045423;28;20048;-80
2021/06/06 10:32:30;;;;;;;62.70;32.53;;;;;;;16.43;90.50;99482.69;5050559;28;20041;-81
2021/06/06 10:35:05;;;;;;;63.35;32.17;;;;;;;16.31;90.74;99477.03;5050306;28;20057;-81
2021/06/06 10:37:32;;;;;;;66.05;33.60;;;;;;;16.31;90.19;99470.72;5050904;28;20504;-80
2021/06/06 10:40:00;;;;;;;58.42;31.05;;;;;;;16.33;91.30;99482.31;5036254;28;20049;-81
2021/06/06 10:42:36;;;;;;;64.20;34.17;;;;;;;16.35;90.56;99488.41;5037704;28;20053;-81
2021/06/06 10:45:09;;;;;;;58.28;30.52;;;;;;;16.35;91.03;99492.00;5046693;28;20045;-81
2021/06/06 10:47:46;;;;;;;60.40;30.98;;;;;;;16.34;90.99;99484.84;5042841;28;20049;-80
2021/06/06 10:50:23;;;;;;;62.92;31.92;;;;;;;16.33;90.02;99468.59;5045279;28;20093;-81
2021/06/06 10:52:51;;;;;;;64.93;33.03;;;;;;;16.32;90.60;99486.09;5042384;28;20095;-80
2021/06/06 10:55:26;;;;;;;67.10;31.23;;;;;;;16.10;90.00;99469.91;5044461;28;20124;-80
2021/06/06 10:57:53;;;;;;;62.08;32.75;;;;;;;16.26;90.55;99482.34;5044537;28;20045;-80
2021/06/06 11:00:30;;;;;;;67.35;32.45;;;;;;;16.30;90.68;99471.75;5051766;28;20534;-81
2021/06/06 11:03:02;;;;;;;58.45;31.40;;;;;;;16.14;90.32;99457.44;5049383;28;20550;-82
2021/06/06 11:05:54;;;;;;;62.03;32.10;;;;;;;16.24;90.54;99468.81;5052203;28;20057;-82
2021/06/06 11:08:37;;;;;;;62.42;31.98;;;;;;;16.23;90.81;99475.38;5025444;28;20136;-82
2021/06/06 11:11:19;;;;;;;63.05;32.15;;;;;;;16.28;91.13;99472.81;5039271;28;20053;-81
2021/06/06 11:13:48;;;;;;;60.25;30.75;;;;;;;16.26;90.88;99483.16;5052390;28;20045;-81
2021/06/06 11:16:33;;;;;;;65.68;33.28;;;;;;;16.40;90.38;99475.72;5046185;28;20045;-80
2021/06/06 11:19:04;;;;;;;63.70;34.40;;;;;;;16.33;91.25;99479.56;5047116;28;20053;-80
2021/06/06 11:21:34;;;;;;;63.00;32.42;;;;;;;16.28;90.23;99456.34;5045996;28;20481;-80
2021/06/06 11:24:05;;;;;;;68.00;33.53;;;;;;;16.49;90.41;99475.50;5045957;28;20059;-80
2021/06/06 11:26:39;;;;;;;66.97;33.90;;;;;;;16.45;90.74;99453.13;5046492;28;20045;-80
2021/06/06 11:29:12;;;;;;;63.40;31.20;;;;;;;16.35;90.64;99458.22;5049415;28;20515;-81
2021/06/06 11:31:58;;;;;;;65.82;32.08;;;;;;;16.44;90.59;99459.69;5052910;28;20052;-82
2021/06/06 11:34:30;;;;;;;58.88;30.02;;;;;;;16.39;90.70;99446.59;5047851;28;20484;-82
2021/06/06 11:37:06;;;;;;;60.42;31.42;;;;;;;16.49;90.05;99440.66;5051574;28;20048;-81
2021/06/06 11:39:39;;;;;;;62.30;32.60;;;;;;;16.55;90.46;99450.78;5050116;28;20037;-81
2021/06/06 11:42:18;;;;;;;70.68;34.00;;;;;;;16.63;90.35;99453.31;5050127;28;20048;-81